Terminal Aerodrome Forecast
Issued by NWS

Home | Current Version | Previous Version | Text Only | Print | Product List | Glossary On
Versions: 1 2 3 4 5 6 7 8 9 10 11 12 13 14 15
000
FTUS43 KIWX 301132
TAFSBN
TAF
KSBN 301132Z 3012/3112 00000KT 1/2SM FG OVC003
     FM301300 20004KT 2SM BR OVC008
     FM301400 24006KT 6SM BR BKN015
     FM301630 26008KT P6SM BKN035
     FM302000 27006KT P6SM SCT025 BKN040
     FM310800 22003KT 5SM BR SCT025
      TEMPO 3110/3112 2SM BR=

USA.gov is the U.S. government's official web portal to all federal, state and local government web resources and services.